Terminal Aerodrome Forecast
Issued by NWS Portland, ME

Home | Current Version | Previous Version | Text Only | Print | Product List | Glossary On
Versions: 1 2 3 4 5 6 7 8 9 10 11 12 13 14 15
000
FTUS41 KGYX 010406 AAA
TAFPWM
TAF AMD
KPWM 010406Z 0104/0124 02006KT P6SM OVC015
     FM010700 01003KT 1 1/2SM BR OVC003
     FM011200 03012KT 5SM -SHRA BR OVC015
      TEMPO 0120/0124 P6SM NSW OVC025=

USA.gov is the U.S. government's official web portal to all federal, state and local government web resources and services.